sensor_id;sensor_type;location;lat;lon;timestamp;temperature;humidity
19220;DHT22;9744;49.364;7.484;2023-08-06T00:00:14;13.70;99.90
19220;DHT22;9744;49.364;7.484;2023-08-06T00:02:42;13.60;99.90
19220;DHT22;9744;49.364;7.484;2023-08-06T00:05:09;13.70;99.90
19220;DHT22;9744;49.364;7.484;2023-08-06T00:07:36;13.70;99.90
19220;DHT22;9744;49.364;7.484;2023-08-06T00:10:04;13.70;99.90
19220;DHT22;9744;49.364;7.484;2023-08-06T00:12:33;13.70;99.90
19220;DHT22;9744;49.364;7.484;2023-08-06T00:15:00;13.70;99.90
19220;DHT22;9744;49.364;7.484;2023-08-06T00:17:28;13.70;99.90
19220;DHT22;9744;49.364;7.484;2023-08-06T00:19:55;13.70;99.90
19220;DHT22;9744;49.364;7.484;2023-08-06T00:22:22;13.70;99.90
19220;DHT22;9744;49.364;7.484;2023-08-06T00:24:49;13.70;99.90
19220;DHT22;9744;49.364;7.484;2023-08-06T00:27:18;13.80;99.90
19220;DHT22;9744;49.364;7.484;2023-08-06T00:29:47;13.70;99.90
19220;DHT22;9744;49.364;7.484;2023-08-06T00:32:14;13.70;99.90
19220;DHT22;9744;49.364;7.484;2023-08-06T00:34:42;13.70;99.90
19220;DHT22;9744;49.364;7.484;2023-08-06T00:37:10;13.70;99.90
19220;DHT22;9744;49.364;7.484;2023-08-06T00:39:38;13.70;99.90
19220;DHT22;9744;49.364;7.484;2023-08-06T00:42:06;13.60;99.90
19220;DHT22;9744;49.364;7.484;2023-08-06T00:44:33;13.60;99.90
19220;DHT22;9744;49.364;7.484;2023-08-06T00:47:02;13.60;99.90
19220;DHT22;9744;49.364;7.484;2023-08-06T00:49:29;13.60;99.90
19220;DHT22;9744;49.364;7.484;2023-08-06T00:51:57;13.50;99.90
19220;DHT22;9744;49.364;7.484;2023-08-06T00:54:25;13.50;99.90
19220;DHT22;9744;49.364;7.484;2023-08-06T00:56:53;13.50;99.90
19220;DHT22;9744;49.364;7.484;2023-08-06T00:59:20;13.40;99.90
19220;DHT22;9744;49.364;7.484;2023-08-06T01:01:48;13.40;99.90
19220;DHT22;9744;49.364;7.484;2023-08-06T01:04:17;13.40;99.90
19220;DHT22;9744;49.364;7.484;2023-08-06T01:06:48;13.30;99.90
19220;DHT22;9744;49.364;7.484;2023-08-06T01:09:25;13.30;99.90
19220;DHT22;9744;49.364;7.484;2023-08-06T01:12:05;13.30;99.90
19220;DHT22;9744;49.364;7.484;2023-08-06T01:14:41;13.20;99.90
19220;DHT22;9744;49.364;7.484;2023-08-06T01:17:12;13.20;99.90
19220;DHT22;9744;49.364;7.484;2023-08-06T01:19:41;13.20;99.90
19220;DHT22;9744;49.364;7.484;2023-08-06T01:22:09;13.20;99.90
19220;DHT22;9744;49.364;7.484;2023-08-06T01:24:37;13.10;99.90
19220;DHT22;9744;49.364;7.484;2023-08-06T01:27:08;13.10;99.90
19220;DHT22;9744;49.364;7.484;2023-08-06T01:29:41;13.10;99.90
19220;DHT22;9744;49.364;7.484;2023-08-06T01:32:12;13.10;99.90
19220;DHT22;9744;49.364;7.484;2023-08-06T01:34:41;13.10;99.90
19220;DHT22;9744;49.364;7.484;2023-08-06T01:37:12;13.00;99.90
19220;DHT22;9744;49.364;7.484;2023-08-06T01:39:42;13.00;99.90
19220;DHT22;9744;49.364;7.484;2023-08-06T01:42:09;13.00;99.90
19220;DHT22;9744;49.364;7.484;2023-08-06T01:44:36;13.00;99.90
19220;DHT22;9744;49.364;7.484;2023-08-06T01:47:04;13.00;99.90
19220;DHT22;9744;49.364;7.484;2023-08-06T01:49:32;13.00;99.90
19220;DHT22;9744;49.364;7.484;2023-08-06T01:51:59;13.00;99.90
19220;DHT22;9744;49.364;7.484;2023-08-06T01:54:28;12.90;99.90
19220;DHT22;9744;49.364;7.484;2023-08-06T01:56:55;12.90;99.90
19220;DHT22;9744;49.364;7.484;2023-08-06T01:59:24;12.90;99.90
19220;DHT22;9744;49.364;7.484;2023-08-06T02:01:51;13.00;99.90
19220;DHT22;9744;49.364;7.484;2023-08-06T02:04:19;12.90;99.90
19220;DHT22;9744;49.364;7.484;2023-08-06T02:06:46;12.90;99.90
19220;DHT22;9744;49.364;7.484;2023-08-06T02:09:13;12.80;99.90
19220;DHT22;9744;49.364;7.484;2023-08-06T02:11:42;12.90;99.90
19220;DHT22;9744;49.364;7.484;2023-08-06T02:14:10;12.80;99.90
19220;DHT22;9744;49.364;7.484;2023-08-06T02:16:38;12.80;99.90
19220;DHT22;9744;49.364;7.484;2023-08-06T02:19:06;12.80;99.90
19220;DHT22;9744;49.364;7.484;2023-08-06T02:21:33;12.80;99.90
19220;DHT22;9744;49.364;7.484;2023-08-06T02:24:00;12.70;99.90
19220;DHT22;9744;49.364;7.484;2023-08-06T02:26:27;12.70;99.90
19220;DHT22;9744;49.364;7.484;2023-08-06T02:28:57;12.70;99.90
19220;DHT22;9744;49.364;7.484;2023-08-06T02:31:24;12.70;99.90
19220;DHT22;9744;49.364;7.484;2023-08-06T02:33:51;12.60;99.90
19220;DHT22;9744;49.364;7.484;2023-08-06T02:36:19;12.60;99.90
19220;DHT22;9744;49.364;7.484;2023-08-06T02:38:47;12.60;99.90
19220;DHT22;9744;49.364;7.484;2023-08-06T02:41:14;12.60;99.90
19220;DHT22;9744;49.364;7.484;2023-08-06T02:43:41;12.50;99.90
19220;DHT22;9744;49.364;7.484;2023-08-06T02:46:10;12.50;99.90
19220;DHT22;9744;49.364;7.484;2023-08-06T02:48:38;12.40;99.90
19220;DHT22;9744;49.364;7.484;2023-08-06T02:51:05;12.40;99.90
19220;DHT22;9744;49.364;7.484;2023-08-06T02:53:33;12.40;99.90
19220;DHT22;9744;49.364;7.484;2023-08-06T02:56:05;12.40;99.90
19220;DHT22;9744;49.364;7.484;2023-08-06T02:58:55;12.40;99.90
19220;DHT22;9744;49.364;7.484;2023-08-06T03:01:35;12.40;99.90
19220;DHT22;9744;49.364;7.484;2023-08-06T03:04:10;12.40;99.90
19220;DHT22;9744;49.364;7.484;2023-08-06T03:06:41;12.40;99.90
19220;DHT22;9744;49.364;7.484;2023-08-06T03:09:09;12.40;99.90
19220;DHT22;9744;49.364;7.484;2023-08-06T03:11:36;12.40;99.90
19220;DHT22;9744;49.364;7.484;2023-08-06T03:14:08;12.30;99.90
19220;DHT22;9744;49.364;7.484;2023-08-06T03:16:37;12.30;99.90
19220;DHT22;9744;49.364;7.484;2023-08-06T03:19:05;12.30;99.90
19220;DHT22;9744;49.364;7.484;2023-08-06T03:21:33;12.30;99.90
19220;DHT22;9744;49.364;7.484;2023-08-06T03:24:02;12.30;99.90
19220;DHT22;9744;49.364;7.484;2023-08-06T03:26:32;12.30;99.90
19220;DHT22;9744;49.364;7.484;2023-08-06T03:28:59;12.30;99.90
19220;DHT22;9744;49.364;7.484;2023-08-06T03:31:28;12.30;99.90
19220;DHT22;9744;49.364;7.484;2023-08-06T03:33:58;12.30;99.90
19220;DHT22;9744;49.364;7.484;2023-08-06T03:36:27;12.30;99.90
19220;DHT22;9744;49.364;7.484;2023-08-06T03:38:55;12.20;99.90
19220;DHT22;9744;49.364;7.484;2023-08-06T03:41:22;12.20;99.90
19220;DHT22;9744;49.364;7.484;2023-08-06T03:43:49;12.20;99.90
19220;DHT22;9744;49.364;7.484;2023-08-06T03:46:23;12.20;99.90
19220;DHT22;9744;49.364;7.484;2023-08-06T03:48:50;12.20;99.90
19220;DHT22;9744;49.364;7.484;2023-08-06T03:51:19;12.10;99.90
19220;DHT22;9744;49.364;7.484;2023-08-06T03:53:48;12.10;99.90
19220;DHT22;9744;49.364;7.484;2023-08-06T03:56:15;12.10;99.90
19220;DHT22;9744;49.364;7.484;2023-08-06T03:58:42;12.10;99.90
19220;DHT22;9744;49.364;7.484;2023-08-06T04:01:10;12.00;99.90
19220;DHT22;9744;49.364;7.484;2023-08-06T04:03:42;12.10;99.90
19220;DHT22;9744;49.364;7.484;2023-08-06T04:06:09;12.00;99.90
19220;DHT22;9744;49.364;7.484;2023-08-06T04:08:38;12.10;99.90
19220;DHT22;9744;49.364;7.484;2023-08-06T04:11:05;12.00;99.90
19220;DHT22;9744;49.364;7.484;2023-08-06T04:13:32;12.00;99.90
19220;DHT22;9744;49.364;7.484;2023-08-06T04:16:01;12.00;99.90
19220;DHT22;9744;49.364;7.484;2023-08-06T04:18:29;12.00;99.90
19220;DHT22;9744;49.364;7.484;2023-08-06T04:20:56;12.00;99.90
19220;DHT22;9744;49.364;7.484;2023-08-06T04:23:25;12.00;99.90
19220;DHT22;9744;49.364;7.484;2023-08-06T04:25:58;11.90;99.90
19220;DHT22;9744;49.364;7.484;2023-08-06T04:28:29;12.00;99.90
19220;DHT22;9744;49.364;7.484;2023-08-06T04:30:58;11.90;99.90
19220;DHT22;9744;49.364;7.484;2023-08-06T04:33:26;12.00;99.90
19220;DHT22;9744;49.364;7.484;2023-08-06T04:35:56;11.90;99.90
19220;DHT22;9744;49.364;7.484;2023-08-06T04:38:26;11.90;99.90
19220;DHT22;9744;49.364;7.484;2023-08-06T04:40:54;11.90;99.90
19220;DHT22;9744;49.364;7.484;2023-08-06T04:43:24;11.90;99.90
19220;DHT22;9744;49.364;7.484;2023-08-06T04:45:53;11.90;99.90
19220;DHT22;9744;49.364;7.484;2023-08-06T04:48:20;11.90;99.90
19220;DHT22;9744;49.364;7.484;2023-08-06T04:50:49;11.90;99.90
19220;DHT22;9744;49.364;7.484;2023-08-06T04:53:16;11.90;99.90
19220;DHT22;9744;49.364;7.484;2023-08-06T04:55:44;11.90;99.90
19220;DHT22;9744;49.364;7.484;2023-08-06T04:58:13;11.90;99.90
19220;DHT22;9744;49.364;7.484;2023-08-06T05:00:42;11.90;99.90
19220;DHT22;9744;49.364;7.484;2023-08-06T05:03:09;11.90;99.90
19220;DHT22;9744;49.364;7.484;2023-08-06T05:05:36;11.90;99.90
19220;DHT22;9744;49.364;7.484;2023-08-06T05:08:03;11.90;99.90
19220;DHT22;9744;49.364;7.484;2023-08-06T05:10:31;11.90;99.90
19220;DHT22;9744;49.364;7.484;2023-08-06T05:12:58;11.90;99.90
19220;DHT22;9744;49.364;7.484;2023-08-06T05:15:25;12.00;99.90
19220;DHT22;9744;49.364;7.484;2023-08-06T05:17:54;11.90;99.90
19220;DHT22;9744;49.364;7.484;2023-08-06T05:20:21;12.00;99.90
19220;DHT22;9744;49.364;7.484;2023-08-06T05:22:48;12.00;99.90
19220;DHT22;9744;49.364;7.484;2023-08-06T05:25:15;12.00;99.90
19220;DHT22;9744;49.364;7.484;2023-08-06T05:27:43;11.90;99.90
19220;DHT22;9744;49.364;7.484;2023-08-06T05:30:11;12.00;99.90
19220;DHT22;9744;49.364;7.484;2023-08-06T05:32:38;11.90;99.90
19220;DHT22;9744;49.364;7.484;2023-08-06T05:35:07;12.00;99.90
19220;DHT22;9744;49.364;7.484;2023-08-06T05:37:34;12.00;99.90
19220;DHT22;9744;49.364;7.484;2023-08-06T05:40:01;12.00;99.90
19220;DHT22;9744;49.364;7.484;2023-08-06T05:42:30;12.00;99.90
19220;DHT22;9744;49.364;7.484;2023-08-06T05:44:57;12.10;99.90
19220;DHT22;9744;49.364;7.484;2023-08-06T05:47:24;12.10;99.90
19220;DHT22;9744;49.364;7.484;2023-08-06T05:49:51;12.10;99.90
19220;DHT22;9744;49.364;7.484;2023-08-06T05:52:20;12.10;99.90
19220;DHT22;9744;49.364;7.484;2023-08-06T05:54:47;12.10;99.90
19220;DHT22;9744;49.364;7.484;2023-08-06T05:57:14;12.10;99.90
19220;DHT22;9744;49.364;7.484;2023-08-06T05:59:42;12.10;99.90
19220;DHT22;9744;49.364;7.484;2023-08-06T06:02:09;12.10;99.90
19220;DHT22;9744;49.364;7.484;2023-08-06T06:04:37;12.20;99.90
19220;DHT22;9744;49.364;7.484;2023-08-06T06:07:04;12.20;99.90
19220;DHT22;9744;49.364;7.484;2023-08-06T06:09:33;12.20;99.90
19220;DHT22;9744;49.364;7.484;2023-08-06T06:12:00;12.20;99.90
19220;DHT22;9744;49.364;7.484;2023-08-06T06:14:27;12.20;99.90
19220;DHT22;9744;49.364;7.484;2023-08-06T06:16:54;12.20;99.90
19220;DHT22;9744;49.364;7.484;2023-08-06T06:19:21;12.20;99.90
19220;DHT22;9744;49.364;7.484;2023-08-06T06:21:49;12.20;99.90
19220;DHT22;9744;49.364;7.484;2023-08-06T06:24:16;12.20;99.90
19220;DHT22;9744;49.364;7.484;2023-08-06T06:26:44;12.20;99.90
19220;DHT22;9744;49.364;7.484;2023-08-06T06:29:11;12.30;99.90
19220;DHT22;9744;49.364;7.484;2023-08-06T06:31:39;12.30;99.90
19220;DHT22;9744;49.364;7.484;2023-08-06T06:34:06;12.40;99.90
19220;DHT22;9744;49.364;7.484;2023-08-06T06:36:33;12.40;99.90
19220;DHT22;9744;49.364;7.484;2023-08-06T06:39:00;12.50;99.90
19220;DHT22;9744;49.364;7.484;2023-08-06T06:41:27;12.50;99.90
19220;DHT22;9744;49.364;7.484;2023-08-06T06:44:05;12.50;99.90
19220;DHT22;9744;49.364;7.484;2023-08-06T06:46:32;12.60;99.90
19220;DHT22;9744;49.364;7.484;2023-08-06T06:48:59;12.60;99.90
19220;DHT22;9744;49.364;7.484;2023-08-06T06:51:27;12.70;99.90
19220;DHT22;9744;49.364;7.484;2023-08-06T06:53:54;12.70;99.90
19220;DHT22;9744;49.364;7.484;2023-08-06T06:56:21;12.70;99.90
19220;DHT22;9744;49.364;7.484;2023-08-06T06:58:48;12.70;99.90
19220;DHT22;9744;49.364;7.484;2023-08-06T07:01:17;12.60;99.90
19220;DHT22;9744;49.364;7.484;2023-08-06T07:03:44;12.60;99.90
19220;DHT22;9744;49.364;7.484;2023-08-06T07:06:11;12.60;99.90
19220;DHT22;9744;49.364;7.484;2023-08-06T07:08:38;12.60;99.90
19220;DHT22;9744;49.364;7.484;2023-08-06T07:11:06;12.50;99.90
19220;DHT22;9744;49.364;7.484;2023-08-06T07:13:34;12.50;99.90
19220;DHT22;9744;49.364;7.484;2023-08-06T07:16:02;12.60;99.90
19220;DHT22;9744;49.364;7.484;2023-08-06T07:18:30;12.60;99.90
19220;DHT22;9744;49.364;7.484;2023-08-06T07:20:58;12.60;99.90
19220;DHT22;9744;49.364;7.484;2023-08-06T07:23:26;12.60;99.90
19220;DHT22;9744;49.364;7.484;2023-08-06T07:25:53;12.60;99.90
19220;DHT22;9744;49.364;7.484;2023-08-06T07:28:20;12.60;99.90
19220;DHT22;9744;49.364;7.484;2023-08-06T07:30:48;12.60;99.90
19220;DHT22;9744;49.364;7.484;2023-08-06T07:33:15;12.70;99.90
19220;DHT22;9744;49.364;7.484;2023-08-06T07:35:44;12.70;99.90
19220;DHT22;9744;49.364;7.484;2023-08-06T07:38:11;12.70;99.90
19220;DHT22;9744;49.364;7.484;2023-08-06T07:40:38;12.70;99.90
19220;DHT22;9744;49.364;7.484;2023-08-06T07:43:06;12.80;99.90
19220;DHT22;9744;49.364;7.484;2023-08-06T07:45:33;12.70;99.90
19220;DHT22;9744;49.364;7.484;2023-08-06T07:48:01;12.70;99.90
19220;DHT22;9744;49.364;7.484;2023-08-06T07:50:28;12.70;99.90
19220;DHT22;9744;49.364;7.484;2023-08-06T07:52:57;12.70;99.90
19220;DHT22;9744;49.364;7.484;2023-08-06T07:55:25;12.90;99.90
19220;DHT22;9744;49.364;7.484;2023-08-06T07:57:53;13.00;99.90
19220;DHT22;9744;49.364;7.484;2023-08-06T08:00:20;13.00;99.90
19220;DHT22;9744;49.364;7.484;2023-08-06T08:02:47;13.10;99.90
19220;DHT22;9744;49.364;7.484;2023-08-06T08:05:15;13.20;99.90
19220;DHT22;9744;49.364;7.484;2023-08-06T08:07:42;13.30;99.90
19220;DHT22;9744;49.364;7.484;2023-08-06T08:10:11;13.20;99.90
19220;DHT22;9744;49.364;7.484;2023-08-06T08:12:38;13.20;99.90
19220;DHT22;9744;49.364;7.484;2023-08-06T08:15:06;13.20;99.90
19220;DHT22;9744;49.364;7.484;2023-08-06T08:17:34;13.20;99.90
19220;DHT22;9744;49.364;7.484;2023-08-06T08:20:01;13.10;99.90
19220;DHT22;9744;49.364;7.484;2023-08-06T08:22:29;13.10;99.90
19220;DHT22;9744;49.364;7.484;2023-08-06T08:24:56;13.00;99.90
19220;DHT22;9744;49.364;7.484;2023-08-06T08:27:25;13.00;99.90
19220;DHT22;9744;49.364;7.484;2023-08-06T08:29:52;12.90;99.90
19220;DHT22;9744;49.364;7.484;2023-08-06T08:32:19;12.90;99.90
19220;DHT22;9744;49.364;7.484;2023-08-06T08:34:47;12.90;99.90
19220;DHT22;9744;49.364;7.484;2023-08-06T08:37:14;12.90;99.90
19220;DHT22;9744;49.364;7.484;2023-08-06T08:39:41;12.70;99.90
19220;DHT22;9744;49.364;7.484;2023-08-06T08:42:09;12.80;99.90
19220;DHT22;9744;49.364;7.484;2023-08-06T08:44:38;12.90;99.90
19220;DHT22;9744;49.364;7.484;2023-08-06T08:47:07;12.70;99.90
19220;DHT22;9744;49.364;7.484;2023-08-06T08:49:36;12.70;99.90
19220;DHT22;9744;49.364;7.484;2023-08-06T08:52:04;12.70;99.90
19220;DHT22;9744;49.364;7.484;2023-08-06T08:54:33;12.80;99.90
19220;DHT22;9744;49.364;7.484;2023-08-06T08:57:01;12.80;99.90
19220;DHT22;9744;49.364;7.484;2023-08-06T08:59:28;12.90;99.90
19220;DHT22;9744;49.364;7.484;2023-08-06T09:01:57;12.80;99.90
19220;DHT22;9744;49.364;7.484;2023-08-06T09:04:27;12.90;99.90
19220;DHT22;9744;49.364;7.484;2023-08-06T09:06:58;12.80;99.90
19220;DHT22;9744;49.364;7.484;2023-08-06T09:09:30;12.80;99.90
19220;DHT22;9744;49.364;7.484;2023-08-06T09:12:01;12.80;99.90
19220;DHT22;9744;49.364;7.484;2023-08-06T09:14:28;12.80;99.90
19220;DHT22;9744;49.364;7.484;2023-08-06T09:16:57;12.90;99.90
19220;DHT22;9744;49.364;7.484;2023-08-06T09:19:24;13.00;99.90
19220;DHT22;9744;49.364;7.484;2023-08-06T09:21:55;13.10;99.90
19220;DHT22;9744;49.364;7.484;2023-08-06T09:24:23;12.90;99.90
19220;DHT22;9744;49.364;7.484;2023-08-06T09:26:52;13.00;99.90
19220;DHT22;9744;49.364;7.484;2023-08-06T09:29:20;13.00;99.90
19220;DHT22;9744;49.364;7.484;2023-08-06T09:31:49;13.00;99.90
19220;DHT22;9744;49.364;7.484;2023-08-06T09:34:20;12.90;99.90
19220;DHT22;9744;49.364;7.484;2023-08-06T09:36:49;12.90;99.90
19220;DHT22;9744;49.364;7.484;2023-08-06T09:39:17;13.00;99.90
19220;DHT22;9744;49.364;7.484;2023-08-06T09:41:45;12.90;99.90
19220;DHT22;9744;49.364;7.484;2023-08-06T09:44:17;12.80;99.90
19220;DHT22;9744;49.364;7.484;2023-08-06T09:46:47;12.80;99.90
19220;DHT22;9744;49.364;7.484;2023-08-06T09:49:15;12.80;99.90
19220;DHT22;9744;49.364;7.484;2023-08-06T09:51:44;12.70;99.90
19220;DHT22;9744;49.364;7.484;2023-08-06T09:54:12;12.70;99.90
19220;DHT22;9744;49.364;7.484;2023-08-06T09:56:42;12.70;99.90
19220;DHT22;9744;49.364;7.484;2023-08-06T09:59:09;12.70;99.90
19220;DHT22;9744;49.364;7.484;2023-08-06T10:01:38;12.70;99.90
19220;DHT22;9744;49.364;7.484;2023-08-06T10:04:06;12.70;99.90
19220;DHT22;9744;49.364;7.484;2023-08-06T10:06:34;12.70;99.90
19220;DHT22;9744;49.364;7.484;2023-08-06T10:09:04;12.70;99.90
19220;DHT22;9744;49.364;7.484;2023-08-06T10:11:31;12.70;99.90
19220;DHT22;9744;49.364;7.484;2023-08-06T10:14:04;12.70;99.90
19220;DHT22;9744;49.364;7.484;2023-08-06T10:16:34;12.80;99.90
19220;DHT22;9744;49.364;7.484;2023-08-06T10:19:03;12.70;99.90
19220;DHT22;9744;49.364;7.484;2023-08-06T10:21:31;12.80;99.90
19220;DHT22;9744;49.364;7.484;2023-08-06T10:23:58;12.90;99.90
19220;DHT22;9744;49.364;7.484;2023-08-06T10:26:29;12.90;99.90
19220;DHT22;9744;49.364;7.484;2023-08-06T10:28:56;12.90;99.90
19220;DHT22;9744;49.364;7.484;2023-08-06T10:31:54;13.00;99.90
19220;DHT22;9744;49.364;7.484;2023-08-06T10:34:22;13.30;99.90
19220;DHT22;9744;49.364;7.484;2023-08-06T10:36:49;13.40;99.90
19220;DHT22;9744;49.364;7.484;2023-08-06T10:39:16;13.50;99.90
19220;DHT22;9744;49.364;7.484;2023-08-06T10:41:45;13.50;99.90
19220;DHT22;9744;49.364;7.484;2023-08-06T10:44:12;13.50;99.90
19220;DHT22;9744;49.364;7.484;2023-08-06T10:46:40;13.40;99.90
19220;DHT22;9744;49.364;7.484;2023-08-06T10:49:08;13.50;99.90
19220;DHT22;9744;49.364;7.484;2023-08-06T10:51:35;13.40;99.90
19220;DHT22;9744;49.364;7.484;2023-08-06T10:54:05;13.30;99.90
19220;DHT22;9744;49.364;7.484;2023-08-06T10:56:40;13.40;99.90
19220;DHT22;9744;49.364;7.484;2023-08-06T10:59:08;13.50;99.90
19220;DHT22;9744;49.364;7.484;2023-08-06T11:01:36;13.50;99.90
19220;DHT22;9744;49.364;7.484;2023-08-06T11:04:05;13.60;99.90
19220;DHT22;9744;49.364;7.484;2023-08-06T11:06:32;13.50;99.90
19220;DHT22;9744;49.364;7.484;2023-08-06T11:09:01;13.60;99.90
19220;DHT22;9744;49.364;7.484;2023-08-06T11:11:28;13.50;99.90
19220;DHT22;9744;49.364;7.484;2023-08-06T11:13:56;13.70;99.90
19220;DHT22;9744;49.364;7.484;2023-08-06T11:16:24;13.60;99.90
19220;DHT22;9744;49.364;7.484;2023-08-06T11:18:52;13.70;99.90
19220;DHT22;9744;49.364;7.484;2023-08-06T11:21:20;13.40;99.90
19220;DHT22;9744;49.364;7.484;2023-08-06T11:23:47;13.40;99.90
19220;DHT22;9744;49.364;7.484;2023-08-06T11:26:19;13.20;99.90
19220;DHT22;9744;49.364;7.484;2023-08-06T11:28:46;13.30;99.90
19220;DHT22;9744;49.364;7.484;2023-08-06T11:31:19;13.50;99.90
19220;DHT22;9744;49.364;7.484;2023-08-06T11:33:49;13.40;99.90
19220;DHT22;9744;49.364;7.484;2023-08-06T11:36:16;13.40;99.90
19220;DHT22;9744;49.364;7.484;2023-08-06T11:38:55;13.30;99.90
19220;DHT22;9744;49.364;7.484;2023-08-06T11:41:22;13.40;99.90
19220;DHT22;9744;49.364;7.484;2023-08-06T11:43:49;13.30;99.90
19220;DHT22;9744;49.364;7.484;2023-08-06T11:46:17;13.30;99.90
19220;DHT22;9744;49.364;7.484;2023-08-06T11:48:55;13.30;99.90
19220;DHT22;9744;49.364;7.484;2023-08-06T11:51:23;13.40;99.90
19220;DHT22;9744;49.364;7.484;2023-08-06T11:53:55;13.60;99.90
19220;DHT22;9744;49.364;7.484;2023-08-06T11:56:24;13.70;99.90
19220;DHT22;9744;49.364;7.484;2023-08-06T11:58:52;13.80;99.90
19220;DHT22;9744;49.364;7.484;2023-08-06T12:01:19;14.00;99.90
19220;DHT22;9744;49.364;7.484;2023-08-06T12:03:46;13.80;99.90
19220;DHT22;9744;49.364;7.484;2023-08-06T12:06:15;13.90;99.90
19220;DHT22;9744;49.364;7.484;2023-08-06T12:08:43;14.00;99.90
19220;DHT22;9744;49.364;7.484;2023-08-06T12:11:10;14.20;99.90
19220;DHT22;9744;49.364;7.484;2023-08-06T12:13:38;14.10;99.90
19220;DHT22;9744;49.364;7.484;2023-08-06T12:16:05;13.90;99.90
19220;DHT22;9744;49.364;7.484;2023-08-06T12:18:32;13.80;99.90
19220;DHT22;9744;49.364;7.484;2023-08-06T12:20:59;14.00;99.90
19220;DHT22;9744;49.364;7.484;2023-08-06T12:23:28;14.10;99.90
19220;DHT22;9744;49.364;7.484;2023-08-06T12:25:55;13.90;99.90
19220;DHT22;9744;49.364;7.484;2023-08-06T12:28:23;13.60;99.90
19220;DHT22;9744;49.364;7.484;2023-08-06T12:30:50;13.30;99.90
19220;DHT22;9744;49.364;7.484;2023-08-06T12:33:22;13.20;99.90
19220;DHT22;9744;49.364;7.484;2023-08-06T12:35:49;13.30;99.90
19220;DHT22;9744;49.364;7.484;2023-08-06T12:38:16;13.40;99.90
19220;DHT22;9744;49.364;7.484;2023-08-06T12:40:45;13.70;99.90
19220;DHT22;9744;49.364;7.484;2023-08-06T12:43:12;13.70;99.90
19220;DHT22;9744;49.364;7.484;2023-08-06T12:45:39;13.70;99.90
19220;DHT22;9744;49.364;7.484;2023-08-06T12:48:07;13.50;99.90
19220;DHT22;9744;49.364;7.484;2023-08-06T12:50:34;13.60;99.90
19220;DHT22;9744;49.364;7.484;2023-08-06T12:53:01;13.60;99.90
19220;DHT22;9744;49.364;7.484;2023-08-06T12:55:30;13.90;99.90
19220;DHT22;9744;49.364;7.484;2023-08-06T12:57:59;14.20;99.90
19220;DHT22;9744;49.364;7.484;2023-08-06T13:00:26;14.20;99.90
19220;DHT22;9744;49.364;7.484;2023-08-06T13:02:55;14.00;99.90
19220;DHT22;9744;49.364;7.484;2023-08-06T13:05:22;14.10;99.90
19220;DHT22;9744;49.364;7.484;2023-08-06T13:07:49;14.20;99.90
19220;DHT22;9744;49.364;7.484;2023-08-06T13:10:17;14.30;99.90
19220;DHT22;9744;49.364;7.484;2023-08-06T13:12:46;14.00;99.90
19220;DHT22;9744;49.364;7.484;2023-08-06T13:15:15;14.00;99.90
19220;DHT22;9744;49.364;7.484;2023-08-06T13:17:42;14.10;99.90
19220;DHT22;9744;49.364;7.484;2023-08-06T13:20:10;14.40;99.90
19220;DHT22;9744;49.364;7.484;2023-08-06T13:22:37;14.60;99.90
19220;DHT22;9744;49.364;7.484;2023-08-06T13:25:05;14.70;99.90
19220;DHT22;9744;49.364;7.484;2023-08-06T13:27:32;14.80;99.90
19220;DHT22;9744;49.364;7.484;2023-08-06T13:30:00;15.00;99.90
19220;DHT22;9744;49.364;7.484;2023-08-06T13:32:30;14.90;99.90
19220;DHT22;9744;49.364;7.484;2023-08-06T13:34:59;14.90;99.90
19220;DHT22;9744;49.364;7.484;2023-08-06T13:37:26;14.70;99.90
19220;DHT22;9744;49.364;7.484;2023-08-06T13:39:53;14.60;99.90
19220;DHT22;9744;49.364;7.484;2023-08-06T13:42:21;14.50;99.90
19220;DHT22;9744;49.364;7.484;2023-08-06T13:44:49;14.40;99.90
19220;DHT22;9744;49.364;7.484;2023-08-06T13:47:16;14.40;99.90
19220;DHT22;9744;49.364;7.484;2023-08-06T13:49:45;14.30;99.90
19220;DHT22;9744;49.364;7.484;2023-08-06T13:52:12;14.10;99.90
19220;DHT22;9744;49.364;7.484;2023-08-06T13:54:39;14.10;99.90
19220;DHT22;9744;49.364;7.484;2023-08-06T13:57:06;14.10;99.90
19220;DHT22;9744;49.364;7.484;2023-08-06T13:59:34;14.00;99.90
19220;DHT22;9744;49.364;7.484;2023-08-06T14:02:01;14.10;99.90
19220;DHT22;9744;49.364;7.484;2023-08-06T14:04:28;14.00;99.90
19220;DHT22;9744;49.364;7.484;2023-08-06T14:06:57;14.00;99.90
19220;DHT22;9744;49.364;7.484;2023-08-06T14:09:24;14.00;99.90
19220;DHT22;9744;49.364;7.484;2023-08-06T14:11:52;14.10;99.90
19220;DHT22;9744;49.364;7.484;2023-08-06T14:14:19;14.10;99.90
19220;DHT22;9744;49.364;7.484;2023-08-06T14:16:51;14.00;99.90
19220;DHT22;9744;49.364;7.484;2023-08-06T14:19:19;13.80;99.90
19220;DHT22;9744;49.364;7.484;2023-08-06T14:21:47;13.80;99.90
19220;DHT22;9744;49.364;7.484;2023-08-06T14:24:15;13.80;99.90
19220;DHT22;9744;49.364;7.484;2023-08-06T14:26:42;13.80;99.90
19220;DHT22;9744;49.364;7.484;2023-08-06T14:29:10;13.40;99.90
19220;DHT22;9744;49.364;7.484;2023-08-06T14:31:37;13.30;99.90
19220;DHT22;9744;49.364;7.484;2023-08-06T14:34:04;13.10;99.90
19220;DHT22;9744;49.364;7.484;2023-08-06T14:36:31;13.20;99.90
19220;DHT22;9744;49.364;7.484;2023-08-06T14:38:59;13.10;99.90
19220;DHT22;9744;49.364;7.484;2023-08-06T14:41:27;13.30;99.90
19220;DHT22;9744;49.364;7.484;2023-08-06T14:43:54;13.50;99.90
19220;DHT22;9744;49.364;7.484;2023-08-06T14:46:22;13.50;99.90
19220;DHT22;9744;49.364;7.484;2023-08-06T14:48:49;13.40;99.90
19220;DHT22;9744;49.364;7.484;2023-08-06T14:51:16;13.50;99.90
19220;DHT22;9744;49.364;7.484;2023-08-06T14:53:45;13.50;99.90
19220;DHT22;9744;49.364;7.484;2023-08-06T14:56:12;13.50;99.90
19220;DHT22;9744;49.364;7.484;2023-08-06T14:58:41;13.70;99.90
19220;DHT22;9744;49.364;7.484;2023-08-06T15:01:08;13.90;99.90
19220;DHT22;9744;49.364;7.484;2023-08-06T15:03:35;13.80;99.90
19220;DHT22;9744;49.364;7.484;2023-08-06T15:06:02;13.80;99.90
19220;DHT22;9744;49.364;7.484;2023-08-06T15:08:29;13.90;99.90
19220;DHT22;9744;49.364;7.484;2023-08-06T15:10:57;14.10;99.90
19220;DHT22;9744;49.364;7.484;2023-08-06T15:13:24;14.00;99.90
19220;DHT22;9744;49.364;7.484;2023-08-06T15:15:52;14.20;99.90
19220;DHT22;9744;49.364;7.484;2023-08-06T15:18:20;14.30;99.90
19220;DHT22;9744;49.364;7.484;2023-08-06T15:20:47;14.50;99.90
19220;DHT22;9744;49.364;7.484;2023-08-06T15:23:14;14.60;99.90
19220;DHT22;9744;49.364;7.484;2023-08-06T15:25:42;14.40;99.90
19220;DHT22;9744;49.364;7.484;2023-08-06T15:28:09;14.50;99.90
19220;DHT22;9744;49.364;7.484;2023-08-06T15:30:36;14.20;99.90
19220;DHT22;9744;49.364;7.484;2023-08-06T15:33:05;13.90;99.90
19220;DHT22;9744;49.364;7.484;2023-08-06T15:35:33;13.80;99.90
19220;DHT22;9744;49.364;7.484;2023-08-06T15:38:00;13.70;99.90
19220;DHT22;9744;49.364;7.484;2023-08-06T15:40:28;13.70;99.90
19220;DHT22;9744;49.364;7.484;2023-08-06T15:42:55;13.50;99.90
19220;DHT22;9744;49.364;7.484;2023-08-06T15:45:22;13.50;99.90
19220;DHT22;9744;49.364;7.484;2023-08-06T15:47:49;13.20;99.90
19220;DHT22;9744;49.364;7.484;2023-08-06T15:50:18;13.10;99.90